createdAt,value
2023-02-04T00:00:24.332Z,2.30
2023-02-04T00:02:51.814Z,2.30
2023-02-04T00:05:20.080Z,2.30
2023-02-04T00:07:47.382Z,2.20
2023-02-04T00:10:14.792Z,2.20
2023-02-04T00:12:41.917Z,2.20
2023-02-04T00:15:10.832Z,2.20
2023-02-04T00:17:39.429Z,2.20
2023-02-04T00:20:07.218Z,2.30
2023-02-04T00:22:34.714Z,2.40
2023-02-04T00:25:01.930Z,2.40
2023-02-04T00:27:29.641Z,2.50
2023-02-04T00:29:58.140Z,2.50
2023-02-04T00:32:25.989Z,2.40
2023-02-04T00:34:54.801Z,2.40
2023-02-04T00:37:22.199Z,2.50
2023-02-04T00:39:49.496Z,2.50
2023-02-04T00:42:17.017Z,2.50
2023-02-04T00:44:44.604Z,2.60
2023-02-04T00:47:12.156Z,2.60
2023-02-04T00:49:39.735Z,2.80
2023-02-04T00:52:07.038Z,2.80
2023-02-04T00:54:34.240Z,2.90
2023-02-04T00:57:01.829Z,3.00
2023-02-04T00:59:29.694Z,3.00
2023-02-04T01:01:56.787Z,3.20
2023-02-04T01:04:24.264Z,3.30
2023-02-04T01:06:52.083Z,3.30
2023-02-04T01:09:19.839Z,3.30
2023-02-04T01:11:47.130Z,3.30
2023-02-04T01:14:14.712Z,3.20
2023-02-04T01:16:42.188Z,3.30
2023-02-04T01:19:09.440Z,3.20
2023-02-04T01:21:36.929Z,3.10
2023-02-04T01:24:04.493Z,3.10
2023-02-04T01:26:33.579Z,3.00
2023-02-04T01:29:00.625Z,3.00
2023-02-04T01:31:28.688Z,3.10
2023-02-04T01:33:55.882Z,3.10
2023-02-04T01:36:23.434Z,3.10
2023-02-04T01:38:50.979Z,3.10
2023-02-04T01:41:19.075Z,3.10
2023-02-04T01:43:48.065Z,3.20
2023-02-04T01:46:15.817Z,3.20
2023-02-04T01:48:44.016Z,3.20
2023-02-04T01:51:15.039Z,3.20
2023-02-04T01:53:43.415Z,3.20
2023-02-04T01:56:20.234Z,3.30
2023-02-04T01:58:48.035Z,3.50
2023-02-04T02:01:33.333Z,3.60
2023-02-04T02:04:01.738Z,3.60
2023-02-04T02:06:29.413Z,3.60
2023-02-04T02:08:58.535Z,3.50
2023-02-04T02:11:26.994Z,3.60
2023-02-04T02:13:55.029Z,3.50
2023-02-04T02:16:22.938Z,3.50
2023-02-04T02:18:51.146Z,3.50
2023-02-04T02:21:24.648Z,3.50
2023-02-04T02:23:57.475Z,3.60
2023-02-04T02:26:25.609Z,3.60
2023-02-04T02:28:53.682Z,3.70
2023-02-04T02:31:23.200Z,3.80
2023-02-04T02:33:50.737Z,4.00
2023-02-04T02:36:18.012Z,4.10
2023-02-04T02:38:45.345Z,4.20
2023-02-04T02:41:12.525Z,4.20
2023-02-04T02:43:40.266Z,4.20
2023-02-04T02:46:07.822Z,4.10
2023-02-04T02:48:35.087Z,4.00
2023-02-04T02:51:02.419Z,3.80
2023-02-04T02:53:30.061Z,3.70
2023-02-04T02:55:58.060Z,3.60
2023-02-04T02:58:33.122Z,3.50
2023-02-04T03:01:01.953Z,3.40
2023-02-04T03:03:34.536Z,3.30
2023-02-04T03:06:09.330Z,3.20
2023-02-04T03:08:36.928Z,3.20
2023-02-04T03:11:04.204Z,3.20
2023-02-04T03:13:33.915Z,3.20
2023-02-04T03:16:01.560Z,3.10
2023-02-04T03:18:30.577Z,3.10
2023-02-04T03:20:59.434Z,3.00
2023-02-04T03:23:27.650Z,2.90
2023-02-04T03:25:55.165Z,2.90
2023-02-04T03:28:23.416Z,2.80
2023-02-04T03:30:56.054Z,2.80
2023-02-04T03:33:26.314Z,2.80
2023-02-04T03:35:53.717Z,2.60
2023-02-04T03:38:20.821Z,2.60
2023-02-04T03:40:48.002Z,2.50
2023-02-04T03:43:15.485Z,2.50
2023-02-04T03:45:45.760Z,2.40
2023-02-04T03:48:13.777Z,2.50
2023-02-04T03:50:41.226Z,2.40
2023-02-04T03:53:09.371Z,2.40
2023-02-04T03:55:36.949Z,2.40
2023-02-04T03:58:05.152Z,2.40
2023-02-04T04:00:33.592Z,2.30
2023-02-04T04:03:01.130Z,2.20
2023-02-04T04:05:28.882Z,2.20
2023-02-04T04:07:56.510Z,2.10
2023-02-04T04:10:24.148Z,2.00
2023-02-04T04:12:51.555Z,1.90
2023-02-04T04:15:18.723Z,1.80
2023-02-04T04:17:45.889Z,1.90
2023-02-04T04:20:13.568Z,1.80
2023-02-04T04:22:41.076Z,1.70
2023-02-04T04:25:09.184Z,1.60
2023-02-04T04:27:36.334Z,1.50
2023-02-04T04:30:04.077Z,1.50
2023-02-04T04:32:31.260Z,1.40
2023-02-04T04:34:58.398Z,1.40
2023-02-04T04:37:25.656Z,1.50
2023-02-04T04:39:52.800Z,1.50
2023-02-04T04:42:20.156Z,1.40
2023-02-04T04:44:47.361Z,1.40
2023-02-04T04:47:14.713Z,1.40
2023-02-04T04:49:41.735Z,1.40
2023-02-04T04:52:08.979Z,1.30
2023-02-04T04:54:36.128Z,1.40
2023-02-04T04:57:03.536Z,1.40
2023-02-04T04:59:30.681Z,1.30
2023-02-04T05:01:57.800Z,1.30
2023-02-04T05:04:25.331Z,1.20
2023-02-04T05:06:52.395Z,1.10
2023-02-04T05:09:19.857Z,1.10
2023-02-04T05:11:47.927Z,1.00
2023-02-04T05:14:15.544Z,0.90
2023-02-04T05:16:42.816Z,0.90
2023-02-04T05:19:10.162Z,0.90
2023-02-04T05:21:37.236Z,1.00
2023-02-04T05:24:06.514Z,0.90
2023-02-04T05:26:33.931Z,0.90
2023-02-04T05:29:01.599Z,1.00
2023-02-04T05:31:29.071Z,1.10
2023-02-04T05:33:56.333Z,1.30
2023-02-04T05:36:23.837Z,1.40
2023-02-04T05:38:50.898Z,1.50
2023-02-04T05:41:18.028Z,1.70
2023-02-04T05:43:45.119Z,1.80
2023-02-04T05:46:12.360Z,1.90
2023-02-04T05:48:40.386Z,2.00
2023-02-04T05:51:07.779Z,2.00
2023-02-04T05:53:35.015Z,2.20
2023-02-04T05:56:02.312Z,2.30
2023-02-04T05:58:33.526Z,2.50
2023-02-04T06:01:02.938Z,2.70
2023-02-04T06:03:30.892Z,3.00
2023-02-04T06:05:58.105Z,3.10
2023-02-04T06:08:25.274Z,3.20
2023-02-04T06:10:52.408Z,3.30
2023-02-04T06:13:19.541Z,3.30
2023-02-04T06:15:46.768Z,3.30
2023-02-04T06:18:14.208Z,3.50
2023-02-04T06:20:41.578Z,3.50
2023-02-04T06:23:08.682Z,3.60
2023-02-04T06:25:36.148Z,3.70
2023-02-04T06:28:03.365Z,3.80
2023-02-04T06:30:31.029Z,3.90
2023-02-04T06:32:58.767Z,3.90
2023-02-04T06:35:25.818Z,3.90
2023-02-04T06:37:53.030Z,4.00
2023-02-04T06:40:20.130Z,4.10
2023-02-04T06:42:47.243Z,4.10
2023-02-04T06:45:14.358Z,4.10
2023-02-04T06:47:41.596Z,4.20
2023-02-04T06:50:09.170Z,4.10
2023-02-04T06:52:37.257Z,4.20
2023-02-04T06:55:04.483Z,4.30
2023-02-04T06:57:31.793Z,4.30
2023-02-04T06:59:59.099Z,4.50
2023-02-04T07:02:26.236Z,4.70
2023-02-04T07:04:53.652Z,4.80
2023-02-04T07:07:20.721Z,4.90
2023-02-04T07:09:48.113Z,4.90
2023-02-04T07:12:16.336Z,4.90
2023-02-04T07:14:44.101Z,5.00
2023-02-04T07:17:11.258Z,5.00
2023-02-04T07:19:38.925Z,5.20
2023-02-04T07:22:06.362Z,6.00
2023-02-04T07:24:33.582Z,7.50
2023-02-04T07:27:02.523Z,9.00
2023-02-04T07:29:29.780Z,10.00
2023-02-04T07:31:56.990Z,11.10
2023-02-04T07:34:24.486Z,11.90
2023-02-04T07:36:51.683Z,12.70
2023-02-04T07:39:18.970Z,13.60
2023-02-04T07:41:46.121Z,14.20
2023-02-04T07:44:15.541Z,15.40
2023-02-04T07:46:42.772Z,16.60
2023-02-04T07:49:10.017Z,17.40
2023-02-04T07:51:37.189Z,17.90
2023-02-04T07:54:04.496Z,18.90
2023-02-04T07:56:31.947Z,19.50
2023-02-04T07:58:59.051Z,19.00
2023-02-04T08:01:26.155Z,19.40
2023-02-04T08:03:53.418Z,19.30
2023-02-04T08:06:20.483Z,19.90
2023-02-04T08:08:47.641Z,20.40
2023-02-04T08:11:14.790Z,20.80
2023-02-04T08:13:42.040Z,20.90
2023-02-04T08:16:11.589Z,21.10
2023-02-04T08:18:39.335Z,20.70
2023-02-04T08:21:06.599Z,20.20
2023-02-04T08:23:33.904Z,20.30
2023-02-04T08:26:00.951Z,20.90
2023-02-04T08:28:28.454Z,21.70
2023-02-04T08:30:56.364Z,21.60
2023-02-04T08:33:23.604Z,21.70
2023-02-04T08:35:50.986Z,21.30
2023-02-04T08:38:18.138Z,22.00
2023-02-04T08:40:45.544Z,21.80
2023-02-04T08:43:12.645Z,22.10
2023-02-04T08:45:39.745Z,21.70
2023-02-04T08:48:07.894Z,20.90
2023-02-04T08:50:35.172Z,20.80
2023-02-04T08:53:02.273Z,19.70
2023-02-04T08:55:29.520Z,19.80
2023-02-04T08:57:56.569Z,20.30
2023-02-04T09:00:23.937Z,20.30
2023-02-04T09:02:50.993Z,20.60
2023-02-04T09:05:18.279Z,20.40
2023-02-04T09:07:45.460Z,18.90
2023-02-04T09:10:12.572Z,17.90
2023-02-04T09:12:39.666Z,17.70
2023-02-04T09:15:07.149Z,17.60
2023-02-04T09:17:34.558Z,18.00
2023-02-04T09:20:01.947Z,17.90
2023-02-04T09:22:29.475Z,17.50
2023-02-04T09:24:56.570Z,16.80
2023-02-04T09:27:23.743Z,17.00
2023-02-04T09:29:50.900Z,16.70
2023-02-04T09:32:18.018Z,16.80
2023-02-04T09:34:45.208Z,17.00
2023-02-04T09:37:12.526Z,17.20
2023-02-04T09:39:39.791Z,17.90
2023-02-04T09:42:07.608Z,17.80
2023-02-04T09:44:34.876Z,17.80
2023-02-04T09:47:02.124Z,17.20
2023-02-04T09:49:29.437Z,16.80
2023-02-04T09:51:57.006Z,17.30
2023-02-04T09:54:25.114Z,17.10
2023-02-04T09:56:53.360Z,16.60
2023-02-04T09:59:22.997Z,16.20
2023-02-04T10:01:57.901Z,15.90
2023-02-04T10:04:25.313Z,15.40
2023-02-04T10:06:52.937Z,15.20
2023-02-04T10:09:20.116Z,14.70
2023-02-04T10:11:48.490Z,14.40
2023-02-04T10:14:19.774Z,13.20
2023-02-04T10:16:59.679Z,12.60
2023-02-04T10:19:29.542Z,12.40
2023-02-04T10:21:56.932Z,12.00
2023-02-04T10:24:26.995Z,11.60
2023-02-04T10:26:54.807Z,11.20
2023-02-04T10:29:25.929Z,10.60
2023-02-04T10:31:53.945Z,10.30
2023-02-04T10:34:22.832Z,10.30
2023-02-04T10:36:52.890Z,10.40
2023-02-04T10:39:23.800Z,10.70
2023-02-04T10:41:54.363Z,10.50
2023-02-04T10:44:27.051Z,10.20
2023-02-04T10:47:15.062Z,10.10
2023-02-04T10:49:52.230Z,10.10
2023-02-04T10:52:21.466Z,9.80
2023-02-04T10:54:49.221Z,9.50
2023-02-04T10:57:24.698Z,9.60
2023-02-04T10:59:54.852Z,9.50
2023-02-04T11:02:42.384Z,9.50
2023-02-04T11:05:20.343Z,9.20
2023-02-04T11:07:49.703Z,9.40
2023-02-04T11:10:21.415Z,9.20
2023-02-04T11:13:02.431Z,8.90
2023-02-04T11:15:51.014Z,8.80
2023-02-04T11:18:21.609Z,8.70
2023-02-04T11:20:50.195Z,8.90
2023-02-04T11:23:34.911Z,8.80
2023-02-04T11:26:08.169Z,8.80
2023-02-04T11:28:58.638Z,8.80
2023-02-04T11:31:41.957Z,9.00
2023-02-04T11:34:11.272Z,9.10
2023-02-04T11:37:01.662Z,9.20
2023-02-04T11:39:33.401Z,9.20
2023-02-04T11:42:02.305Z,9.00
2023-02-04T11:44:29.899Z,8.90
2023-02-04T11:46:58.718Z,8.90
2023-02-04T11:49:27.408Z,8.70
2023-02-04T11:52:14.800Z,8.70
2023-02-04T11:54:41.878Z,8.40
2023-02-04T11:57:12.236Z,8.50
2023-02-04T11:59:39.544Z,8.80
2023-02-04T12:02:24.572Z,9.00
2023-02-04T12:04:53.150Z,9.00
2023-02-04T12:07:30.174Z,9.10
2023-02-04T12:09:58.057Z,8.90
2023-02-04T12:12:29.530Z,8.90
2023-02-04T12:14:58.768Z,8.70
2023-02-04T12:17:26.082Z,8.40
2023-02-04T12:19:53.168Z,8.10
2023-02-04T12:22:20.317Z,8.10
2023-02-04T12:24:47.458Z,8.20
2023-02-04T12:27:14.646Z,8.40
2023-02-04T12:29:41.742Z,8.50
2023-02-04T12:32:08.980Z,8.80
2023-02-04T12:34:36.225Z,8.90
2023-02-04T12:37:03.267Z,8.80
2023-02-04T12:39:32.011Z,9.00
2023-02-04T12:41:59.376Z,9.10
2023-02-04T12:44:26.435Z,8.90
2023-02-04T12:46:55.237Z,8.50
2023-02-04T12:49:24.569Z,8.10
2023-02-04T12:51:52.159Z,7.90
2023-02-04T12:54:19.400Z,7.90
2023-02-04T12:56:46.654Z,7.80
2023-02-04T12:59:13.784Z,7.60
2023-02-04T13:01:40.930Z,7.60
2023-02-04T13:04:08.136Z,7.60
2023-02-04T13:06:35.434Z,7.60
2023-02-04T13:09:02.832Z,7.40
2023-02-04T13:11:30.260Z,7.40
2023-02-04T13:13:57.455Z,7.30
2023-02-04T13:16:24.995Z,7.20
2023-02-04T13:18:52.396Z,7.20
2023-02-04T13:21:19.726Z,7.10
2023-02-04T13:23:46.865Z,6.80
2023-02-04T13:26:14.016Z,6.80
2023-02-04T13:28:41.174Z,6.90
2023-02-04T13:31:08.603Z,6.80
2023-02-04T13:33:35.851Z,6.60
2023-02-04T13:36:02.994Z,6.50
2023-02-04T13:38:30.366Z,6.50
2023-02-04T13:40:57.469Z,6.40
2023-02-04T13:43:24.579Z,6.20
2023-02-04T13:45:51.861Z,6.30
2023-02-04T13:48:19.157Z,6.40
2023-02-04T13:50:46.396Z,6.40
2023-02-04T13:53:13.746Z,6.50
2023-02-04T13:55:40.795Z,6.60
2023-02-04T13:58:07.968Z,6.50
2023-02-04T14:00:35.526Z,6.40
2023-02-04T14:03:02.607Z,6.50
2023-02-04T14:05:29.833Z,6.40
2023-02-04T14:07:56.912Z,6.20
2023-02-04T14:10:25.070Z,6.20
2023-02-04T14:12:52.413Z,6.20
2023-02-04T14:15:19.738Z,6.20
2023-02-04T14:17:46.873Z,6.20
2023-02-04T14:20:14.040Z,6.10
2023-02-04T14:22:41.187Z,6.10
2023-02-04T14:25:10.573Z,6.00
2023-02-04T14:27:42.121Z,5.90
2023-02-04T14:30:27.608Z,5.80
2023-02-04T14:32:55.721Z,5.90
2023-02-04T14:35:24.102Z,5.90
2023-02-04T14:37:51.699Z,5.80
2023-02-04T14:40:20.041Z,5.70
2023-02-04T14:42:47.612Z,5.60
2023-02-04T14:45:15.532Z,5.60
2023-02-04T14:47:42.822Z,5.60
2023-02-04T14:50:15.248Z,5.60
2023-02-04T14:52:42.552Z,5.40
2023-02-04T14:55:11.920Z,5.40
2023-02-04T14:57:39.396Z,5.40
2023-02-04T15:00:07.137Z,5.30
2023-02-04T15:02:34.443Z,5.30
2023-02-04T15:05:01.948Z,5.20
2023-02-04T15:07:29.238Z,5.20
2023-02-04T15:09:56.311Z,5.20
2023-02-04T15:12:23.391Z,5.20
2023-02-04T15:14:50.617Z,5.20
2023-02-04T15:17:18.988Z,5.10
2023-02-04T15:19:46.306Z,5.00
2023-02-04T15:22:14.265Z,4.90
2023-02-04T15:24:41.796Z,4.80
2023-02-04T15:27:08.935Z,4.70
2023-02-04T15:29:37.077Z,4.70
2023-02-04T15:32:06.018Z,4.60
2023-02-04T15:34:35.782Z,4.50
2023-02-04T15:37:04.698Z,4.50
2023-02-04T15:39:33.601Z,4.40
2023-02-04T15:42:02.300Z,4.30
2023-02-04T15:44:30.881Z,4.30
2023-02-04T15:46:59.384Z,4.20
2023-02-04T15:49:28.372Z,4.10
2023-02-04T15:52:19.424Z,4.10
2023-02-04T15:54:53.036Z,4.00
2023-02-04T15:57:21.868Z,3.90
2023-02-04T15:59:50.255Z,3.90
2023-02-04T16:02:18.775Z,3.80
2023-02-04T16:04:48.401Z,3.70
2023-02-04T16:07:17.764Z,3.70
2023-02-04T16:09:59.349Z,3.50
2023-02-04T16:12:28.775Z,3.50
2023-02-04T16:14:59.735Z,3.40
2023-02-04T16:17:29.517Z,3.40
2023-02-04T16:19:58.526Z,3.30
2023-02-04T16:22:27.231Z,3.30
2023-02-04T16:24:55.524Z,3.20
2023-02-04T16:27:24.057Z,3.20
2023-02-04T16:29:53.833Z,3.20
2023-02-04T16:32:24.108Z,3.10
2023-02-04T16:34:53.580Z,3.00
2023-02-04T16:37:23.545Z,2.90
2023-02-04T16:39:52.703Z,2.90
2023-02-04T16:42:21.901Z,2.90
2023-02-04T16:44:51.254Z,2.90
2023-02-04T16:47:18.998Z,2.90
2023-02-04T16:49:48.701Z,3.00
2023-02-04T16:52:16.247Z,2.90
2023-02-04T16:54:44.418Z,3.00
2023-02-04T16:57:12.783Z,3.00
2023-02-04T16:59:40.215Z,3.00
2023-02-04T17:02:08.320Z,3.00
2023-02-04T17:04:36.714Z,3.00
2023-02-04T17:07:04.867Z,3.00
2023-02-04T17:09:32.898Z,3.00
2023-02-04T17:12:00.544Z,3.00
2023-02-04T17:14:28.359Z,3.00
2023-02-04T17:16:56.499Z,3.00
2023-02-04T17:19:24.525Z,3.00
2023-02-04T17:21:52.441Z,3.00
2023-02-04T17:24:20.391Z,3.00
2023-02-04T17:26:48.225Z,2.90
2023-02-04T17:29:18.111Z,2.90
2023-02-04T17:31:45.714Z,2.80
2023-02-04T17:34:13.428Z,2.80
2023-02-04T17:36:40.589Z,2.80
2023-02-04T17:39:08.323Z,2.70
2023-02-04T17:41:35.873Z,2.70
2023-02-04T17:44:03.731Z,2.70
2023-02-04T17:46:31.338Z,2.70
2023-02-04T17:48:58.979Z,2.60
2023-02-04T17:51:26.578Z,2.60
2023-02-04T17:53:53.645Z,2.50
2023-02-04T17:56:21.617Z,2.60
2023-02-04T17:58:49.697Z,2.50
2023-02-04T18:01:21.848Z,2.50
2023-02-04T18:03:49.956Z,2.40
2023-02-04T18:06:23.943Z,2.30
2023-02-04T18:08:53.010Z,2.30
2023-02-04T18:11:27.565Z,2.20
2023-02-04T18:14:00.742Z,2.10
2023-02-04T18:16:30.926Z,2.00
2023-02-04T18:19:20.135Z,2.00
2023-02-04T18:21:49.000Z,2.00
2023-02-04T18:24:21.689Z,2.00
2023-02-04T18:26:51.844Z,1.90
2023-02-04T18:29:38.885Z,1.90
2023-02-04T18:32:14.402Z,1.90
2023-02-04T18:34:46.630Z,1.90
2023-02-04T18:37:27.030Z,1.90
2023-02-04T18:39:58.483Z,1.90
2023-02-04T18:42:27.559Z,1.90
2023-02-04T18:44:56.897Z,1.90
2023-02-04T18:47:32.006Z,1.90
2023-02-04T18:50:01.243Z,1.90
2023-02-04T18:52:37.054Z,1.90
2023-02-04T18:55:17.396Z,1.90
2023-02-04T18:57:44.851Z,1.80
2023-02-04T19:00:14.663Z,1.80
2023-02-04T19:02:50.368Z,1.70
2023-02-04T19:05:42.694Z,1.70
2023-02-04T19:08:17.891Z,1.60
2023-02-04T19:10:45.351Z,1.60
2023-02-04T19:13:26.962Z,1.50
2023-02-04T19:15:56.003Z,1.50
2023-02-04T19:18:28.768Z,1.40
2023-02-04T19:21:02.723Z,1.40
2023-02-04T19:23:38.293Z,1.40
2023-02-04T19:26:27.465Z,1.40
2023-02-04T19:28:55.719Z,1.50
2023-02-04T19:31:22.977Z,1.50
2023-02-04T19:33:52.429Z,1.40
2023-02-04T19:36:34.256Z,1.40
2023-02-04T19:39:03.292Z,1.40
2023-02-04T19:41:46.979Z,1.40
2023-02-04T19:44:14.209Z,1.40
2023-02-04T19:46:42.480Z,1.40
2023-02-04T19:49:16.972Z,1.50
2023-02-04T19:51:46.352Z,1.40
2023-02-04T19:54:25.452Z,1.40
2023-02-04T19:56:55.394Z,1.40
2023-02-04T19:59:36.718Z,1.40
2023-02-04T20:02:07.631Z,1.40
2023-02-04T20:04:40.086Z,1.40
2023-02-04T20:07:28.253Z,1.50
2023-02-04T20:10:16.933Z,1.50
2023-02-04T20:12:44.012Z,1.50
2023-02-04T20:15:18.649Z,1.40
2023-02-04T20:17:48.833Z,1.40
2023-02-04T20:20:29.552Z,1.40
2023-02-04T20:23:14.801Z,1.40
2023-02-04T20:25:47.040Z,1.30
2023-02-04T20:28:15.216Z,1.30
2023-02-04T20:30:42.657Z,1.40
2023-02-04T20:33:29.752Z,1.40
2023-02-04T20:36:25.245Z,1.40
2023-02-04T20:39:23.205Z,1.40
2023-02-04T20:41:50.380Z,1.30
2023-02-04T20:44:40.144Z,1.30
2023-02-04T20:47:18.973Z,1.30
2023-02-04T20:49:54.179Z,1.30
2023-02-04T20:52:41.416Z,1.20
2023-02-04T20:55:31.438Z,1.20
2023-02-04T20:58:20.283Z,1.20
2023-02-04T21:00:52.204Z,1.10
2023-02-04T21:03:27.089Z,1.10
2023-02-04T21:05:56.554Z,1.10
2023-02-04T21:08:27.952Z,1.10
2023-02-04T21:10:56.686Z,1.10
2023-02-04T21:13:24.565Z,1.10
2023-02-04T21:15:52.490Z,1.10
2023-02-04T21:18:20.278Z,1.10
2023-02-04T21:20:47.394Z,1.10
2023-02-04T21:23:14.733Z,1.10
2023-02-04T21:25:41.835Z,1.10
2023-02-04T21:28:09.320Z,1.00
2023-02-04T21:30:36.881Z,1.00
2023-02-04T21:33:04.065Z,1.00
2023-02-04T21:35:31.589Z,1.00
2023-02-04T21:37:59.108Z,1.00
2023-02-04T21:40:27.236Z,1.00
2023-02-04T21:42:55.258Z,1.00
2023-02-04T21:45:24.514Z,1.00
2023-02-04T21:47:52.871Z,0.90
2023-02-04T21:50:23.053Z,0.90
2023-02-04T21:52:50.839Z,0.90
2023-02-04T21:55:21.579Z,0.90
2023-02-04T21:57:50.217Z,0.80
2023-02-04T22:00:19.285Z,0.80
2023-02-04T22:02:46.663Z,0.80
2023-02-04T22:05:14.164Z,0.80
2023-02-04T22:07:41.649Z,0.70
2023-02-04T22:10:13.403Z,0.70
2023-02-04T22:12:40.999Z,0.70
2023-02-04T22:15:09.219Z,0.70
2023-02-04T22:17:37.046Z,0.70
2023-02-04T22:20:04.996Z,0.70
2023-02-04T22:22:32.202Z,0.70
2023-02-04T22:24:59.791Z,0.70
2023-02-04T22:27:27.043Z,0.70
2023-02-04T22:29:54.346Z,0.60
2023-02-04T22:32:21.806Z,0.60
2023-02-04T22:34:49.016Z,0.50
2023-02-04T22:37:16.423Z,0.60
2023-02-04T22:39:43.976Z,0.60
2023-02-04T22:42:11.628Z,0.60
2023-02-04T22:44:39.001Z,0.60
2023-02-04T22:47:06.440Z,0.70
2023-02-04T22:49:35.196Z,0.60
2023-02-04T22:52:03.949Z,0.60
2023-02-04T22:54:31.822Z,0.60
2023-02-04T22:57:00.464Z,0.60
2023-02-04T22:59:28.576Z,0.50
2023-02-04T23:01:56.602Z,0.50
2023-02-04T23:04:24.028Z,0.50
2023-02-04T23:06:52.300Z,0.50
2023-02-04T23:09:20.660Z,0.50
2023-02-04T23:11:47.880Z,0.40
2023-02-04T23:14:15.672Z,0.40
2023-02-04T23:16:42.784Z,0.40
2023-02-04T23:19:10.005Z,0.40
2023-02-04T23:21:37.181Z,0.30
2023-02-04T23:24:04.896Z,0.30
2023-02-04T23:26:32.010Z,0.30
2023-02-04T23:29:00.955Z,0.40
2023-02-04T23:31:28.455Z,0.30
2023-02-04T23:33:55.643Z,0.20
2023-02-04T23:36:23.009Z,0.20
2023-02-04T23:38:50.321Z,0.10
2023-02-04T23:41:17.517Z,0.10
2023-02-04T23:43:44.708Z,0.10
2023-02-04T23:46:11.847Z,0.00
2023-02-04T23:48:39.145Z,0.00
2023-02-04T23:51:06.448Z,-0.10
2023-02-04T23:53:33.609Z,-0.20
2023-02-04T23:56:00.957Z,-0.10
2023-02-04T23:58:28.126Z,-0.10
